Time;durP1;ratioP1;P1;durP2;ratioP2;P2;SDS_P1;SDS_P2;PMS_P1;PMS_P2;Temp;Humidity;BMP_temperature;BMP_pressure;BME280_temperature;BME280_humidity;BME280_pressure;Samples;Min_cycle;Max_cycle;Signal;HPM_P1;HPM_P2
2022/12/24 00:02:14;;;;;;;47.30;10.93;;;;;;;9.56;98.98;100557.88;5040365;28;20067;-63
2022/12/24 00:04:42;;;;;;;47.85;10.60;;;;;;;9.55;99.10;100551.69;5051966;28;20159;-64
2022/12/24 00:07:08;;;;;;;46.40;12.13;;;;;;;9.57;99.11;100562.22;5051991;28;20016;-63
2022/12/24 00:09:34;;;;;;;37.80;10.73;;;;;;;9.57;98.96;100559.56;5049117;28;20503;-64
2022/12/24 00:12:00;;;;;;;44.30;11.38;;;;;;;9.55;99.14;100564.97;5050151;28;20048;-64
2022/12/24 00:14:25;;;;;;;45.58;11.02;;;;;;;9.48;100.00;100561.00;5051561;28;20039;-64
2022/12/24 00:16:51;;;;;;;36.70;10.48;;;;;;;9.54;99.23;100555.28;5050333;28;20033;-63
2022/12/24 00:19:18;;;;;;;38.60;10.57;;;;;;;9.52;99.60;100566.97;5050808;28;20062;-63
2022/12/24 00:21:44;;;;;;;37.88;10.73;;;;;;;9.44;100.00;100556.84;5036495;28;20037;-64
2022/12/24 00:24:09;;;;;;;41.53;10.40;;;;;;;9.47;100.00;100569.03;5013716;28;20049;-63
2022/12/24 00:26:35;;;;;;;42.03;11.23;;;;;;;9.41;100.00;100569.44;5031973;28;20040;-64
2022/12/24 00:29:01;;;;;;;49.28;10.82;;;;;;;9.38;100.00;100567.81;5031715;28;20068;-64
2022/12/24 00:31:26;;;;;;;34.80;10.05;;;;;;;9.42;100.00;100574.66;5051888;28;20025;-64
2022/12/24 00:33:52;;;;;;;45.85;10.45;;;;;;;9.45;100.00;100578.94;5038639;28;20036;-63
2022/12/24 00:36:19;;;;;;;38.38;9.32;;;;;;;9.49;100.00;100577.78;5031982;28;20489;-64
2022/12/24 00:38:45;;;;;;;45.92;11.05;;;;;;;9.49;100.00;100581.28;5031395;28;20018;-64
2022/12/24 00:41:24;;;;;;;43.83;11.18;;;;;;;9.54;99.53;100578.34;5030684;28;20056;-64
2022/12/24 00:43:57;;;;;;;45.90;11.15;;;;;;;9.51;99.42;100590.00;5032185;28;20105;-63
2022/12/24 00:46:24;;;;;;;42.28;11.13;;;;;;;9.55;99.15;100603.94;5031911;28;20029;-64
2022/12/24 00:48:52;;;;;;;44.53;10.30;;;;;;;9.48;100.00;100606.13;5035002;28;20538;-64
2022/12/24 00:51:20;;;;;;;42.20;10.48;;;;;;;9.45;100.00;100606.31;5049563;28;20495;-63
2022/12/24 00:53:46;;;;;;;46.47;11.50;;;;;;;9.47;99.08;100617.72;5051086;28;20115;-64
2022/12/24 00:56:14;;;;;;;43.88;10.90;;;;;;;9.46;99.11;100609.81;5052075;28;20052;-63
2022/12/24 00:58:40;;;;;;;38.95;10.50;;;;;;;9.42;99.74;100614.47;5050997;28;20404;-64
2022/12/24 01:01:06;;;;;;;49.95;11.20;;;;;;;9.42;100.00;100619.78;5045602;28;20389;-64
2022/12/24 01:03:34;;;;;;;42.50;10.43;;;;;;;9.40;99.80;100612.84;5030268;28;20034;-64
2022/12/24 01:06:01;;;;;;;43.38;11.35;;;;;;;9.40;99.22;100628.78;5036031;28;20033;-63
2022/12/24 01:08:27;;;;;;;40.70;10.02;;;;;;;9.36;100.00;100632.59;5049728;28;20057;-63
2022/12/24 01:10:52;;;;;;;38.95;11.02;;;;;;;9.35;99.10;100623.75;5043063;28;20068;-63
2022/12/24 01:13:20;;;;;;;48.03;10.90;;;;;;;9.30;99.46;100618.75;5043159;28;20063;-64
2022/12/24 01:15:45;;;;;;;46.47;12.45;;;;;;;9.28;99.85;100625.09;5050268;28;20033;-63
2022/12/24 01:18:11;;;;;;;40.55;12.52;;;;;;;9.23;100.00;100633.31;5050051;28;20036;-63
2022/12/24 01:20:39;;;;;;;37.20;10.90;;;;;;;9.25;99.53;100638.53;5049340;28;20041;-63
2022/12/24 01:23:05;;;;;;;38.78;11.23;;;;;;;9.32;98.99;100642.50;5048399;28;20539;-64
2022/12/24 01:25:30;;;;;;;39.70;11.15;;;;;;;9.25;98.88;100644.69;5054470;28;20074;-64
2022/12/24 01:27:56;;;;;;;40.88;10.95;;;;;;;9.22;98.91;100642.22;5054755;28;20107;-64
2022/12/24 01:30:24;;;;;;;43.63;12.07;;;;;;;9.20;99.39;100651.22;5052969;28;20025;-64
2022/12/24 01:32:50;;;;;;;39.88;10.82;;;;;;;9.13;99.20;100640.13;5053742;28;20048;-64
2022/12/24 01:35:16;;;;;;;45.58;11.75;;;;;;;9.15;99.89;100654.19;5053049;28;20108;-63
2022/12/24 01:37:42;;;;;;;40.50;11.27;;;;;;;9.13;100.00;100658.72;5053567;28;20484;-64
2022/12/24 01:45:45;;;;;;;36.95;11.60;;;;;;;9.08;99.79;100671.38;5040839;28;20495;-64
2022/12/24 01:48:20;;;;;;;47.08;12.52;;;;;;;9.00;100.00;100673.63;5054425;28;20479;-64
2022/12/24 01:50:48;;;;;;;44.30;11.55;;;;;;;8.99;100.00;100686.06;5054924;28;20075;-63
2022/12/24 01:53:14;;;;;;;46.65;12.38;;;;;;;8.96;100.00;100670.31;5053086;28;20208;-63
2022/12/24 01:55:43;;;;;;;45.65;11.77;;;;;;;9.10;100.00;100677.47;5054649;28;20040;-64
2022/12/24 01:58:12;;;;;;;47.08;11.73;;;;;;;9.00;100.00;100677.16;5054150;28;20033;-64
2022/12/24 02:00:40;;;;;;;47.47;12.77;;;;;;;9.02;100.00;100679.72;5051099;28;20032;-64
2022/12/24 02:03:05;;;;;;;45.03;11.70;;;;;;;9.09;100.00;100681.09;5054264;28;20364;-64
2022/12/24 02:05:50;;;;;;;42.30;11.55;;;;;;;9.01;100.00;100686.81;5054464;28;20071;-63
2022/12/24 02:08:16;;;;;;;50.38;11.15;;;;;;;9.04;100.00;100697.25;5032942;28;20034;-63
2022/12/24 02:10:43;;;;;;;43.40;11.43;;;;;;;9.05;100.00;100703.41;5045347;28;20040;-64
2022/12/24 02:13:09;;;;;;;51.28;11.98;;;;;;;9.07;100.00;100699.72;5052810;28;20055;-64
2022/12/24 02:15:56;;;;;;;44.97;11.07;;;;;;;9.13;100.00;100698.50;5054018;28;20021;-63
2022/12/24 02:18:32;;;;;;;42.90;11.63;;;;;;;9.13;100.00;100701.16;5058182;28;20024;-63
2022/12/24 02:21:24;;;;;;;40.55;12.13;;;;;;;9.14;100.00;100708.16;5073263;28;20031;-63
2022/12/24 02:24:29;;;;;;;50.00;11.02;;;;;;;9.18;100.00;100703.56;5036002;28;20041;-63
2022/12/24 02:27:42;;;;;;;47.75;11.32;;;;;;;9.17;100.00;100715.09;5054096;28;20040;-63
2022/12/24 02:30:33;;;;;;;48.83;11.48;;;;;;;9.16;100.00;100710.75;5039537;28;20059;-63
2022/12/24 02:33:15;;;;;;;50.58;11.15;;;;;;;9.22;100.00;100713.88;5052479;28;20041;-64
2022/12/24 02:35:43;;;;;;;51.88;11.27;;;;;;;9.21;100.00;100716.63;5051771;28;20033;-63
2022/12/24 02:38:28;;;;;;;46.20;10.83;;;;;;;9.23;100.00;100720.03;5052836;28;20060;-63
2022/12/24 02:41:05;;;;;;;52.72;11.45;;;;;;;9.24;100.00;100714.66;5053829;28;20080;-63
2022/12/24 02:43:36;;;;;;;45.05;10.57;;;;;;;9.31;100.00;100723.09;5053285;28;20111;-63
2022/12/24 02:46:07;;;;;;;44.70;10.65;;;;;;;9.27;100.00;100717.13;5053753;28;20028;-63
2022/12/24 02:48:36;;;;;;;49.17;10.57;;;;;;;9.38;100.00;100715.59;5053503;28;20027;-64
2022/12/24 02:51:07;;;;;;;46.88;10.25;;;;;;;9.33;100.00;100729.16;5053857;28;20017;-64
2022/12/24 02:53:36;;;;;;;44.72;10.85;;;;;;;9.36;100.00;100720.19;5052834;28;20037;-63
2022/12/24 02:56:23;;;;;;;53.28;11.02;;;;;;;9.33;100.00;100729.16;5051429;28;20025;-63
2022/12/24 02:59:09;;;;;;;46.85;10.75;;;;;;;9.36;100.00;100728.13;5051211;28;20108;-64
2022/12/24 03:01:56;;;;;;;50.03;10.13;;;;;;;9.31;100.00;100728.41;5043938;28;20029;-63
2022/12/24 03:04:49;;;;;;;51.15;10.98;;;;;;;9.26;100.00;100723.34;5052977;28;20361;-64
2022/12/24 03:07:20;;;;;;;44.25;11.30;;;;;;;9.22;100.00;100713.88;5033497;28;20067;-63
2022/12/24 03:10:03;;;;;;;43.05;11.13;;;;;;;9.27;100.00;100732.19;5032831;28;20041;-64
2022/12/24 03:12:42;;;;;;;41.55;11.13;;;;;;;9.27;100.00;100734.84;5049019;28;20116;-63
2022/12/24 03:15:13;;;;;;;37.13;9.52;;;;;;;9.29;100.00;100725.84;5052737;28;20051;-63
2022/12/24 03:17:40;;;;;;;44.35;10.23;;;;;;;9.36;100.00;100736.09;5053042;28;20039;-64
2022/12/24 03:20:08;;;;;;;43.33;10.27;;;;;;;9.36;100.00;100729.00;5052561;28;20060;-64
2022/12/24 03:22:35;;;;;;;37.63;10.95;;;;;;;9.38;100.00;100742.16;5053119;28;20036;-63
2022/12/24 03:25:04;;;;;;;37.15;10.00;;;;;;;9.43;100.00;100740.94;5051863;28;20131;-63
2022/12/24 03:27:32;;;;;;;40.92;10.65;;;;;;;9.47;100.00;100736.28;5033122;28;20033;-63
2022/12/24 03:29:58;;;;;;;33.33;9.05;;;;;;;9.53;100.00;100741.25;5039340;28;20047;-63
2022/12/24 03:32:29;;;;;;;42.83;11.20;;;;;;;9.53;100.00;100739.44;5051392;28;20480;-64
2022/12/24 03:34:57;;;;;;;42.85;10.45;;;;;;;9.47;100.00;100744.25;5051495;28;20021;-64
2022/12/24 03:37:24;;;;;;;35.85;10.27;;;;;;;9.43;100.00;100746.25;5031000;28;20487;-63
2022/12/24 03:39:54;;;;;;;37.60;10.05;;;;;;;9.44;100.00;100744.44;5045431;28;20471;-64
2022/12/24 03:42:20;;;;;;;41.10;9.95;;;;;;;9.49;100.00;100745.88;5052214;28;20020;-64
2022/12/24 03:44:45;;;;;;;35.67;9.77;;;;;;;9.52;100.00;100753.66;5063838;28;20377;-64
2022/12/24 03:47:11;;;;;;;42.10;9.82;;;;;;;9.45;100.00;100760.28;5061395;28;20032;-63
2022/12/24 03:49:37;;;;;;;37.50;9.10;;;;;;;9.46;100.00;100755.81;5063100;28;20045;-63
2022/12/24 03:52:04;;;;;;;35.28;10.05;;;;;;;9.45;100.00;100762.94;5043203;28;20404;-63
2022/12/24 03:54:31;;;;;;;37.42;10.88;;;;;;;9.46;100.00;100755.81;5034383;28;20108;-64
2022/12/24 03:56:56;;;;;;;42.67;11.38;;;;;;;9.43;100.00;100763.97;5052255;28;20035;-63
2022/12/24 03:59:21;;;;;;;38.83;10.88;;;;;;;9.44;100.00;100763.91;5047631;28;20037;-64
2022/12/24 04:01:47;;;;;;;36.90;10.65;;;;;;;9.43;100.00;100759.50;5048826;28;20037;-63
2022/12/24 04:04:13;;;;;;;32.38;10.63;;;;;;;9.40;100.00;100766.81;5051005;28;20028;-63
2022/12/24 04:06:38;;;;;;;31.15;9.00;;;;;;;9.38;100.00;100769.53;5034232;28;20032;-63
2022/12/24 04:09:05;;;;;;;31.00;9.80;;;;;;;9.39;100.00;100770.41;5051493;28;20083;-63
2022/12/24 04:11:31;;;;;;;38.75;9.73;;;;;;;9.42;100.00;100767.59;5051981;28;20053;-63
2022/12/24 04:13:58;;;;;;;38.67;10.10;;;;;;;9.38;100.00;100769.53;5051946;28;20079;-63
2022/12/24 04:16:23;;;;;;;38.38;9.65;;;;;;;9.42;100.00;100779.06;5052060;28;20036;-63
2022/12/24 04:18:51;;;;;;;32.67;8.82;;;;;;;9.42;100.00;100772.91;5049697;28;20048;-63
2022/12/24 04:21:17;;;;;;;33.25;8.98;;;;;;;9.42;100.00;100773.75;5045366;28;20037;-65
2022/12/24 04:23:45;;;;;;;35.78;8.85;;;;;;;9.45;100.00;100770.91;5013442;28;20056;-63
2022/12/24 04:26:12;;;;;;;33.35;9.27;;;;;;;9.42;100.00;100786.16;5031936;28;20476;-64
2022/12/24 04:28:40;;;;;;;36.65;10.30;;;;;;;9.34;100.00;100776.00;5041803;28;20480;-64
2022/12/24 04:31:11;;;;;;;35.92;9.25;;;;;;;9.37;100.00;100780.28;5043189;28;20223;-64
2022/12/24 04:33:37;;;;;;;39.85;10.85;;;;;;;9.40;100.00;100796.84;5049640;28;20060;-64
2022/12/24 04:36:04;;;;;;;37.67;9.55;;;;;;;9.35;100.00;100787.47;5051345;28;20021;-63
2022/12/24 04:38:30;;;;;;;40.80;9.85;;;;;;;9.41;100.00;100787.09;5049698;28;20104;-63
2022/12/24 04:41:00;;;;;;;35.22;10.27;;;;;;;9.44;100.00;100787.78;5051477;28;20103;-64
2022/12/24 04:43:28;;;;;;;36.58;9.98;;;;;;;9.38;100.00;100793.44;5051376;28;20083;-64
2022/12/24 04:45:56;;;;;;;35.80;10.85;;;;;;;9.36;100.00;100800.66;5051729;28;20421;-63
2022/12/24 04:48:22;;;;;;;42.88;9.55;;;;;;;9.41;100.00;100793.28;5051322;28;20021;-63
2022/12/24 04:50:48;;;;;;;35.03;9.80;;;;;;;9.37;100.00;100790.88;5049782;28;20446;-64
2022/12/24 04:53:14;;;;;;;40.45;8.75;;;;;;;9.37;100.00;100794.38;5050783;28;20120;-64
2022/12/24 04:55:44;;;;;;;36.42;9.40;;;;;;;9.34;100.00;100802.53;5051388;28;20061;-63
2022/12/24 04:58:12;;;;;;;41.83;9.27;;;;;;;9.39;100.00;100794.31;5051364;28;20024;-64
2022/12/24 05:00:39;;;;;;;34.78;8.75;;;;;;;9.40;100.00;100796.84;5056871;28;20101;-64
2022/12/24 05:03:07;;;;;;;35.30;8.68;;;;;;;9.35;100.00;100801.56;5052052;28;20049;-64
2022/12/24 05:05:32;;;;;;;44.53;9.45;;;;;;;9.29;100.00;100802.81;5055221;28;20025;-64
2022/12/24 05:07:58;;;;;;;39.78;8.63;;;;;;;9.31;100.00;100802.72;5017610;28;20384;-64
2022/12/24 05:10:23;;;;;;;33.53;9.77;;;;;;;9.28;100.00;100813.50;5038863;28;20020;-63
2022/12/24 05:12:48;;;;;;;40.13;9.80;;;;;;;9.30;100.00;100819.59;5037485;28;20036;-63
2022/12/24 05:15:15;;;;;;;42.70;9.65;;;;;;;9.26;100.00;100820.69;5055393;28;20029;-64
2022/12/24 05:17:41;;;;;;;42.53;9.38;;;;;;;9.26;100.00;100808.28;5053917;28;20043;-63
2022/12/24 05:20:10;;;;;;;38.35;10.13;;;;;;;9.27;100.00;100812.66;5053847;28;20028;-63
2022/12/24 05:28:03;;;;;;;44.67;9.57;;;;;;;9.27;100.00;100807.34;5055254;28;20537;-63
2022/12/24 05:30:29;;;;;;;39.10;10.50;;;;;;;9.24;100.00;100804.03;5051324;28;20036;-63
2022/12/24 05:32:54;;;;;;;37.33;8.43;;;;;;;9.21;100.00;100807.72;5052001;28;20503;-64
2022/12/24 05:35:20;;;;;;;41.47;10.10;;;;;;;9.35;100.00;100806.03;5040664;28;20033;-63
2022/12/24 05:37:45;;;;;;;39.58;9.25;;;;;;;9.24;100.00;100812.00;5046334;28;20032;-64
2022/12/24 05:40:11;;;;;;;37.67;9.30;;;;;;;9.24;100.00;100812.84;5052590;28;20034;-62
2022/12/24 05:42:38;;;;;;;32.63;9.43;;;;;;;9.25;100.00;100814.53;5038693;28;20053;-64
2022/12/24 05:45:06;;;;;;;39.40;9.88;;;;;;;9.23;100.00;100818.22;5054422;28;20029;-64
2022/12/24 05:47:32;;;;;;;41.67;9.90;;;;;;;9.26;100.00;100824.19;5053847;28;20021;-63
2022/12/24 05:49:57;;;;;;;37.28;9.82;;;;;;;9.26;100.00;100834.81;5052871;28;20514;-63
2022/12/24 05:52:22;;;;;;;42.08;10.18;;;;;;;9.24;100.00;100846.50;5053515;28;20488;-63
2022/12/24 05:54:48;;;;;;;41.90;9.45;;;;;;;9.24;100.00;100844.69;5050955;28;20032;-63
2022/12/24 05:57:14;;;;;;;47.42;10.25;;;;;;;9.18;100.00;100834.44;5051230;28;20025;-64
2022/12/24 05:59:40;;;;;;;35.17;9.15;;;;;;;9.19;100.00;100843.22;5037002;28;20446;-64
2022/12/24 06:02:07;;;;;;;42.13;9.75;;;;;;;9.22;100.00;100837.75;5034527;28;20029;-63
2022/12/24 06:04:33;;;;;;;39.50;10.60;;;;;;;9.18;100.00;100849.50;5040317;28;20030;-64
2022/12/24 06:06:58;;;;;;;37.03;10.20;;;;;;;9.15;100.00;100855.84;5034215;28;20095;-63
2022/12/24 06:09:24;;;;;;;37.42;9.82;;;;;;;9.13;100.00;100849.75;5050954;28;20033;-64
2022/12/24 06:11:52;;;;;;;35.75;9.80;;;;;;;9.14;100.00;100843.47;5054706;28;20428;-64
2022/12/24 06:14:18;;;;;;;33.08;9.63;;;;;;;9.17;100.00;100845.09;5053092;28;20032;-64
2022/12/24 06:16:46;;;;;;;42.58;10.63;;;;;;;9.10;100.00;100844.63;5052666;28;20013;-63
2022/12/24 06:19:12;;;;;;;36.45;9.77;;;;;;;9.06;100.00;100845.75;5052431;28;20040;-63
2022/12/24 06:21:39;;;;;;;40.25;10.98;;;;;;;9.04;100.00;100858.22;5056371;28;20028;-63
2022/12/24 06:24:05;;;;;;;41.72;11.82;;;;;;;8.99;100.00;100844.38;5053316;28;20060;-63
2022/12/24 06:26:31;;;;;;;37.22;10.70;;;;;;;8.99;100.00;100857.63;5063922;28;20827;-64
2022/12/24 06:28:58;;;;;;;37.40;10.30;;;;;;;9.01;100.00;100855.75;5030721;28;20384;-64
2022/12/24 06:31:24;;;;;;;32.60;9.80;;;;;;;9.03;100.00;100864.47;5052969;28;20083;-64
2022/12/24 06:33:52;;;;;;;37.70;11.30;;;;;;;8.96;100.00;100856.00;5036083;28;20045;-63
2022/12/24 06:36:24;;;;;;;41.42;11.05;;;;;;;8.91;100.00;100873.97;5053910;28;20017;-64
2022/12/24 06:38:50;;;;;;;38.03;10.48;;;;;;;8.95;100.00;100872.00;5053311;28;20466;-64
2022/12/24 06:41:17;;;;;;;33.17;10.30;;;;;;;8.87;100.00;100875.94;5053912;28;20033;-63
2022/12/24 06:43:44;;;;;;;35.47;9.80;;;;;;;8.87;100.00;100883.03;5053897;28;20108;-63
2022/12/24 06:46:10;;;;;;;40.55;11.55;;;;;;;8.86;100.00;100873.38;5052314;28;20548;-64
2022/12/24 06:48:35;;;;;;;38.38;10.18;;;;;;;8.83;100.00;100877.06;5053294;28;20025;-64
2022/12/24 06:51:02;;;;;;;36.25;9.82;;;;;;;8.83;100.00;100874.41;5051975;28;20058;-64
2022/12/24 06:53:28;;;;;;;48.40;12.55;;;;;;;8.74;100.00;100853.69;5051733;28;20112;-64
2022/12/24 06:56:03;;;;;;;40.33;10.88;;;;;;;8.90;100.00;100887.31;5053546;28;20441;-64
2022/12/24 06:58:29;;;;;;;46.25;11.68;;;;;;;8.90;100.00;100890.81;5053428;28;20067;-63
2022/12/24 07:00:54;;;;;;;53.13;13.48;;;;;;;8.86;100.00;100876.03;5053157;28;20025;-64
2022/12/24 07:03:20;;;;;;;49.22;12.23;;;;;;;8.87;100.00;100897.16;5052526;28;20067;-64
2022/12/24 07:05:45;;;;;;;37.47;11.00;;;;;;;8.81;100.00;100897.50;5052466;28;20028;-64
2022/12/24 07:08:11;;;;;;;47.28;11.48;;;;;;;8.85;100.00;100895.53;5052198;28;20491;-63
2022/12/24 07:10:37;;;;;;;44.22;11.02;;;;;;;8.80;100.00;100902.91;5035103;28;20037;-64
2022/12/24 07:13:02;;;;;;;42.35;10.88;;;;;;;8.80;100.00;100898.44;5035102;28;20071;-63
2022/12/24 07:15:30;;;;;;;41.25;12.50;;;;;;;8.86;100.00;100914.00;5052598;28;20052;-64
2022/12/24 07:17:56;;;;;;;39.58;10.48;;;;;;;8.81;100.00;100902.78;5051683;28;20021;-64
2022/12/24 07:20:21;;;;;;;48.58;11.68;;;;;;;8.76;100.00;100899.53;5051379;28;20032;-63
2022/12/24 07:22:46;;;;;;;37.30;10.65;;;;;;;8.76;100.00;100898.69;5034187;28;20025;-63
2022/12/24 07:25:14;;;;;;;47.90;11.73;;;;;;;8.77;100.00;100909.22;5050991;28;20410;-63
2022/12/24 07:27:39;;;;;;;53.08;12.13;;;;;;;8.78;100.00;100915.38;5051675;28;20442;-63
2022/12/24 07:30:07;;;;;;;44.70;12.13;;;;;;;8.77;100.00;100911.88;5050084;28;20021;-64
2022/12/24 07:32:32;;;;;;;42.63;11.35;;;;;;;8.74;100.00;100909.38;5053004;28;20074;-63
2022/12/24 07:35:01;;;;;;;46.40;11.40;;;;;;;8.73;100.00;100923.56;5052671;28;20431;-63
2022/12/24 07:37:28;;;;;;;53.17;11.75;;;;;;;8.73;100.00;100930.66;5050703;28;20052;-63
2022/12/24 07:39:54;;;;;;;37.00;11.25;;;;;;;8.64;100.00;100929.38;5052375;28;20423;-63
2022/12/24 07:42:20;;;;;;;45.10;11.55;;;;;;;8.68;100.00;100928.28;5051482;28;20428;-63
2022/12/24 07:44:47;;;;;;;45.35;11.70;;;;;;;8.68;100.00;100936.25;5052380;28;20096;-64
2022/12/24 07:47:15;;;;;;;50.05;12.55;;;;;;;8.71;100.00;100940.53;5058134;28;20020;-64
2022/12/24 07:49:43;;;;;;;44.03;11.48;;;;;;;8.77;100.00;100930.44;5064155;28;20032;-63
2022/12/24 07:52:09;;;;;;;41.72;10.65;;;;;;;8.71;100.00;100944.03;5072177;28;20028;-62
2022/12/24 07:54:34;;;;;;;46.67;10.25;;;;;;;8.69;100.00;100956.50;5070512;28;20033;-64
2022/12/24 07:56:59;;;;;;;48.20;11.05;;;;;;;8.70;100.00;100963.50;5065708;28;20036;-64
2022/12/24 07:59:25;;;;;;;51.47;11.15;;;;;;;8.70;100.00;100960.84;5069508;28;20476;-63
2022/12/24 08:01:52;;;;;;;39.17;10.75;;;;;;;8.74;100.00;100977.47;5071882;28;20036;-64
2022/12/24 08:04:18;;;;;;;42.67;9.82;;;;;;;8.82;100.00;100972.59;5068838;28;20098;-63
2022/12/24 08:06:44;;;;;;;44.08;10.95;;;;;;;8.79;100.00;100981.56;5051940;28;20112;-64
2022/12/24 08:09:09;;;;;;;49.20;11.75;;;;;;;8.78;100.00;100986.97;5063476;28;20029;-64
2022/12/24 08:11:34;;;;;;;39.10;10.50;;;;;;;8.76;100.00;100983.53;5070479;28;20036;-63
2022/12/24 08:14:00;;;;;;;40.25;10.95;;;;;;;8.78;100.00;100992.28;5055319;28;20028;-63
2022/12/24 08:16:26;;;;;;;44.63;11.15;;;;;;;8.77;100.00;100996.72;5050064;28;20560;-64
2022/12/24 08:18:51;;;;;;;44.15;10.93;;;;;;;8.81;100.00;101005.38;5033493;28;20130;-63
2022/12/24 08:21:17;;;;;;;43.65;10.38;;;;;;;8.78;100.00;101001.09;5051692;28;20113;-63
2022/12/24 08:23:42;;;;;;;47.22;10.35;;;;;;;8.78;100.00;101006.38;5057852;28;20032;-63
2022/12/24 08:26:09;;;;;;;40.95;10.88;;;;;;;8.81;100.00;101008.88;5049967;28;20052;-64
2022/12/24 08:28:35;;;;;;;48.30;11.30;;;;;;;8.82;100.00;101015.03;5049820;28;20064;-64
2022/12/24 08:31:01;;;;;;;49.70;11.05;;;;;;;8.81;100.00;101003.56;5050670;28;20025;-64
2022/12/24 08:33:27;;;;;;;44.45;12.27;;;;;;;8.93;100.00;101014.47;5049843;28;20435;-63
2022/12/24 08:35:54;;;;;;;49.60;11.18;;;;;;;8.91;100.00;101021.66;5032640;28;20028;-64
2022/12/24 08:38:20;;;;;;;40.25;10.70;;;;;;;9.01;100.00;101023.72;5050946;28;20385;-64
2022/12/24 08:40:48;;;;;;;40.47;11.32;;;;;;;8.99;100.00;101017.66;5051770;28;20024;-63
2022/12/24 08:43:14;;;;;;;43.22;11.00;;;;;;;8.96;100.00;101022.25;5049914;28;20175;-63
2022/12/24 08:45:39;;;;;;;43.60;10.45;;;;;;;9.00;100.00;101019.38;5050329;28;20104;-64
2022/12/24 08:48:06;;;;;;;44.10;11.15;;;;;;;9.05;100.00;101021.75;5033430;28;20094;-63
2022/12/24 08:50:32;;;;;;;50.42;10.65;;;;;;;9.01;100.00;101026.38;5050403;28;20056;-64
2022/12/24 08:52:57;;;;;;;45.65;10.00;;;;;;;9.02;100.00;101032.53;5051019;28;20391;-64
2022/12/24 08:55:23;;;;;;;40.08;11.15;;;;;;;9.03;100.00;101037.78;5049565;28;20071;-64
2022/12/24 08:57:48;;;;;;;42.60;11.38;;;;;;;9.03;100.00;101042.19;5049686;28;20090;-64
2022/12/24 09:00:16;;;;;;;46.22;12.38;;;;;;;9.07;100.00;101030.50;5050145;28;20043;-63
2022/12/24 09:02:44;;;;;;;39.55;10.02;;;;;;;9.10;100.00;101039.16;5049636;28;20031;-63
2022/12/24 09:05:11;;;;;;;40.92;11.40;;;;;;;9.09;100.00;101049.88;5050964;28;20017;-64
2022/12/24 09:07:37;;;;;;;53.97;12.82;;;;;;;9.01;100.00;101047.59;5051338;28;20423;-63
2022/12/24 09:10:03;;;;;;;44.03;10.55;;;;;;;9.03;100.00;101051.03;5032878;28;20029;-64
2022/12/24 09:12:31;;;;;;;52.08;11.48;;;;;;;9.02;100.00;101064.38;5050806;28;20269;-64
2022/12/24 09:14:57;;;;;;;47.97;11.00;;;;;;;9.00;100.00;101061.81;5050758;28;20091;-64
2022/12/24 09:17:22;;;;;;;41.50;10.50;;;;;;;9.03;100.00;101066.09;5033328;28;20021;-63
2022/12/24 09:19:48;;;;;;;47.97;10.65;;;;;;;9.05;100.00;101078.34;5049808;28;20024;-63
2022/12/24 09:22:14;;;;;;;41.13;11.45;;;;;;;9.07;100.00;101081.78;5049794;28;20037;-64
2022/12/24 09:24:40;;;;;;;45.15;11.23;;;;;;;9.09;100.00;101084.34;5050273;28;20037;-63
2022/12/24 09:27:05;;;;;;;49.75;11.52;;;;;;;9.15;100.00;101099.06;5049543;28;20396;-64
2022/12/24 09:29:34;;;;;;;49.83;11.45;;;;;;;9.19;100.00;101093.53;5049643;28;20086;-64
2022/12/24 09:31:59;;;;;;;49.38;12.63;;;;;;;9.31;100.00;101102.63;5050956;28;20040;-64
2022/12/24 09:34:27;;;;;;;47.50;12.05;;;;;;;9.40;100.00;101095.97;5049607;28;20036;-63
2022/12/24 09:36:53;;;;;;;50.00;12.60;;;;;;;9.42;100.00;101102.06;5049989;28;20029;-64
2022/12/24 09:39:21;;;;;;;46.83;11.35;;;;;;;9.45;100.00;101104.56;5049095;28;20420;-63
2022/12/24 09:41:58;;;;;;;45.45;10.77;;;;;;;9.47;100.00;101105.31;5050505;28;20049;-64
2022/12/24 09:44:42;;;;;;;44.72;10.93;;;;;;;9.54;100.00;101102.25;5050670;28;20368;-63
2022/12/24 09:47:32;;;;;;;51.25;12.10;;;;;;;9.49;100.00;101106.94;5054076;28;20021;-63
2022/12/24 09:50:00;;;;;;;36.92;10.90;;;;;;;9.53;100.00;101115.63;5034347;28;20037;-64
2022/12/24 09:52:35;;;;;;;43.50;11.10;;;;;;;9.54;100.00;101120.81;5034740;28;20048;-63
2022/12/24 09:55:06;;;;;;;41.45;11.38;;;;;;;9.53;100.00;101121.78;5033847;28;20029;-64
2022/12/24 09:57:40;;;;;;;41.17;11.10;;;;;;;9.58;100.00;101131.28;5034712;28;20025;-64
2022/12/24 10:00:18;;;;;;;48.03;11.65;;;;;;;9.55;100.00;101127.84;5051850;28;20369;-64
2022/12/24 10:02:44;;;;;;;53.20;12.25;;;;;;;9.52;100.00;101135.97;5054821;28;20025;-64
2022/12/24 10:05:16;;;;;;;43.40;11.80;;;;;;;9.47;100.00;101121.22;5052966;28;20033;-64
2022/12/24 10:08:10;;;;;;;47.95;11.98;;;;;;;9.57;100.00;101133.09;5054644;28;20438;-63
2022/12/24 10:10:50;;;;;;;48.40;12.05;;;;;;;9.45;100.00;101117.81;5053653;28;20041;-64
2022/12/24 10:13:45;;;;;;;42.72;11.20;;;;;;;9.54;100.00;101135.91;5053503;28;20101;-63
2022/12/24 10:16:16;;;;;;;40.50;11.57;;;;;;;9.67;100.00;101136.94;5054115;28;20031;-63
2022/12/24 10:18:55;;;;;;;41.33;10.55;;;;;;;9.66;100.00;101135.22;5054115;28;20024;-64
2022/12/24 10:21:45;;;;;;;42.00;11.23;;;;;;;9.67;100.00;101130.78;5034474;28;20441;-63
2022/12/24 10:24:19;;;;;;;47.30;11.40;;;;;;;9.68;100.00;101141.34;5033296;28;20465;-63
2022/12/24 10:26:55;;;;;;;41.00;11.50;;;;;;;9.69;100.00;101129.75;5034209;28;20080;-64
2022/12/24 10:29:35;;;;;;;47.17;11.52;;;;;;;9.69;100.00;101136.88;5033487;28;20128;-63
2022/12/24 10:32:25;;;;;;;42.95;10.68;;;;;;;9.80;100.00;101134.47;5049978;28;20059;-64
2022/12/24 10:34:58;;;;;;;40.97;10.25;;;;;;;9.84;100.00;101133.34;5030999;28;20397;-64
2022/12/24 10:37:27;;;;;;;50.58;10.82;;;;;;;9.88;100.00;101129.63;5032524;28;20072;-64
2022/12/24 10:39:53;;;;;;;42.08;10.98;;;;;;;9.89;100.00;101147.25;5042064;28;20037;-64
2022/12/24 10:42:22;;;;;;;44.85;12.07;;;;;;;9.84;100.00;101138.69;5053612;28;20032;-63
2022/12/24 10:44:56;;;;;;;43.78;11.57;;;;;;;9.84;100.00;101149.31;5053828;28;20437;-63
2022/12/24 10:47:22;;;;;;;44.90;11.45;;;;;;;9.81;100.00;101143.31;5053633;28;20100;-63
2022/12/24 10:50:02;;;;;;;40.75;10.50;;;;;;;9.80;100.00;101145.13;5053160;28;20032;-63
2022/12/24 10:52:34;;;;;;;40.92;10.88;;;;;;;9.82;100.00;101135.22;5053582;28;20357;-64
2022/12/24 10:55:04;;;;;;;42.90;12.27;;;;;;;9.84;100.00;101140.47;5052759;28;20032;-63
2022/12/24 10:57:31;;;;;;;42.90;11.35;;;;;;;9.87;100.00;101138.50;5052329;28;20026;-63
2022/12/24 10:59:56;;;;;;;45.05;11.50;;;;;;;10.01;100.00;101143.06;5052971;28;20040;-64
2022/12/24 11:02:30;;;;;;;44.78;10.63;;;;;;;10.17;100.00;101151.00;5052183;28;20029;-64
2022/12/24 11:04:58;;;;;;;45.53;12.70;;;;;;;10.23;99.80;101145.34;5053504;28;20040;-64
2022/12/24 11:07:24;;;;;;;42.15;11.85;;;;;;;10.25;99.55;101148.78;5051643;28;20021;-63
2022/12/24 11:10:04;;;;;;;34.65;10.18;;;;;;;10.27;99.97;101151.41;5050915;28;20025;-64
2022/12/24 11:12:34;;;;;;;44.10;11.57;;;;;;;10.24;100.00;101149.75;5052885;28;20391;-64
2022/12/24 11:15:17;;;;;;;38.83;11.25;;;;;;;10.34;100.00;101156.25;5052895;28;20427;-64
2022/12/24 11:17:59;;;;;;;45.03;12.75;;;;;;;10.18;100.00;101150.94;5053170;28;20021;-64
2022/12/24 11:20:29;;;;;;;46.58;12.75;;;;;;;10.17;100.00;101141.22;5051617;28;20071;-64
2022/12/24 11:22:55;;;;;;;;;;;;;;;10.31;100.00;101151.13;5053156;28;20029;-64
2022/12/24 11:25:27;;;;;;;42.53;11.05;;;;;;;10.27;99.88;101149.59;5051854;28;19974;-64
2022/12/24 11:28:09;;;;;;;40.78;11.50;;;;;;;10.31;100.00;101159.09;5051472;28;20029;-64
2022/12/24 11:30:35;;;;;;;34.63;11.90;;;;;;;10.32;99.02;101160.81;5052453;28;20446;-64
2022/12/24 11:33:00;;;;;;;38.05;11.05;;;;;;;10.29;99.15;101155.66;5052599;28;20051;-64